Selsey, United Kingdom
Current Conditions -  °F | °C
As of 8:20 AM on Thursday 29 Jan 2015 (Local Time) from EGKA Reporting Station
Few Clouds Few Clouds  
Wind Chill: 32°   Ceiling: Unl
Heat Index: 37°   Visibility: 6mi
Dew Point: 34°   Wind: 7mph
Humidity: 87%   Direction: 270°W
Pressure: 29.26"   Gusts: NA
Location:  50.74°N, 0.79°W
Report Text: EGKA 290820Z 27006KT 9999 FEW022 03/01 Q0991
Loading
Personal Weather Stations






























Interactive Weather Map New forecast layout! Learn more

10-Day Weather Forecast

Advertisements
Track Severe Weather on mobile